sensor_id;sensor_type;location;lat;lon;timestamp;pressure;altitude;pressure_sealevel;temperature;humidity
74722;BME280;63470;49.826;6.740;2024-02-16T00:01:40;99915.83;;;9.81;72.94
74722;BME280;63470;49.826;6.740;2024-02-16T00:04:10;99911.78;;;9.78;72.95
74722;BME280;63470;49.826;6.740;2024-02-16T00:06:41;99913.79;;;9.75;72.94
74722;BME280;63470;49.826;6.740;2024-02-16T00:09:15;99908.30;;;9.72;72.97
74722;BME280;63470;49.826;6.740;2024-02-16T00:11:40;99911.39;;;9.71;73.01
74722;BME280;63470;49.826;6.740;2024-02-16T00:14:10;99906.73;;;9.69;73.07
74722;BME280;63470;49.826;6.740;2024-02-16T00:16:41;99905.16;;;9.68;73.06
74722;BME280;63470;49.826;6.740;2024-02-16T00:19:11;99900.63;;;9.69;72.99
74722;BME280;63470;49.826;6.740;2024-02-16T00:21:43;99905.05;;;9.71;72.92
74722;BME280;63470;49.826;6.740;2024-02-16T00:24:13;99904.55;;;9.71;72.93
74722;BME280;63470;49.826;6.740;2024-02-16T00:26:45;99901.06;;;9.72;72.98
74722;BME280;63470;49.826;6.740;2024-02-16T00:29:15;99895.88;;;9.77;72.93
74722;BME280;63470;49.826;6.740;2024-02-16T00:31:49;99897.73;;;9.83;72.81
74722;BME280;63470;49.826;6.740;2024-02-16T00:34:14;99901.21;;;9.87;72.76
74722;BME280;63470;49.826;6.740;2024-02-16T00:36:45;99900.76;;;9.89;72.84
74722;BME280;63470;49.826;6.740;2024-02-16T00:39:15;99898.42;;;9.95;72.79
74722;BME280;63470;49.826;6.740;2024-02-16T00:41:47;99893.28;;;10.01;72.70
74722;BME280;63470;49.826;6.740;2024-02-16T00:44:16;99893.12;;;10.05;72.63
74722;BME280;63470;49.826;6.740;2024-02-16T00:46:47;99892.99;;;10.07;72.65
74722;BME280;63470;49.826;6.740;2024-02-16T00:49:17;99896.16;;;10.11;72.60
74722;BME280;63470;49.826;6.740;2024-02-16T00:51:48;99893.20;;;10.15;72.49
74722;BME280;63470;49.826;6.740;2024-02-16T00:54:18;99889.04;;;10.17;72.38
74722;BME280;63470;49.826;6.740;2024-02-16T00:56:49;99876.50;;;10.18;72.34
74722;BME280;63470;49.826;6.740;2024-02-16T00:59:20;99878.48;;;10.16;72.40
74722;BME280;63470;49.826;6.740;2024-02-16T01:01:50;99875.31;;;10.16;72.45
74722;BME280;63470;49.826;6.740;2024-02-16T01:04:20;99873.16;;;10.16;72.49
74722;BME280;63470;49.826;6.740;2024-02-16T01:06:51;99873.41;;;10.16;72.49
74722;BME280;63470;49.826;6.740;2024-02-16T01:09:21;99871.15;;;10.17;72.52
74722;BME280;63470;49.826;6.740;2024-02-16T01:11:52;99871.36;;;10.18;72.50
74722;BME280;63470;49.826;6.740;2024-02-16T01:14:22;99871.84;;;10.19;72.46
74722;BME280;63470;49.826;6.740;2024-02-16T01:16:52;99868.27;;;10.17;72.49
74722;BME280;63470;49.826;6.740;2024-02-16T01:19:23;99869.17;;;10.17;72.49
74722;BME280;63470;49.826;6.740;2024-02-16T01:21:59;99865.42;;;10.19;72.47
74722;BME280;63470;49.826;6.740;2024-02-16T01:24:24;99868.27;;;10.21;72.43
74722;BME280;63470;49.826;6.740;2024-02-16T01:26:55;99873.45;;;10.22;72.37
74722;BME280;63470;49.826;6.740;2024-02-16T01:29:25;99868.14;;;10.20;72.40
74722;BME280;63470;49.826;6.740;2024-02-16T01:31:55;99869.30;;;10.19;72.45
74722;BME280;63470;49.826;6.740;2024-02-16T01:34:26;99869.46;;;10.18;72.49
74722;BME280;63470;49.826;6.740;2024-02-16T01:36:56;99868.02;;;10.18;72.50
74722;BME280;63470;49.826;6.740;2024-02-16T01:39:27;99871.84;;;10.20;72.48
74722;BME280;63470;49.826;6.740;2024-02-16T01:41:57;99867.94;;;10.21;72.42
74722;BME280;63470;49.826;6.740;2024-02-16T01:44:28;99872.47;;;10.21;72.43
74722;BME280;63470;49.826;6.740;2024-02-16T01:46:58;99872.92;;;10.19;72.47
74722;BME280;63470;49.826;6.740;2024-02-16T01:49:29;99875.64;;;10.19;72.54
74722;BME280;63470;49.826;6.740;2024-02-16T01:52:00;99880.38;;;10.18;72.50
74722;BME280;63470;49.826;6.740;2024-02-16T01:54:30;99885.66;;;10.17;72.55
74722;BME280;63470;49.826;6.740;2024-02-16T01:57:00;99880.55;;;10.17;72.58
74722;BME280;63470;49.826;6.740;2024-02-16T01:59:30;99880.14;;;10.17;72.52
74722;BME280;63470;49.826;6.740;2024-02-16T02:02:01;99887.34;;;10.16;72.49
74722;BME280;63470;49.826;6.740;2024-02-16T02:04:31;99884.88;;;10.15;72.49
74722;BME280;63470;49.826;6.740;2024-02-16T02:07:13;99895.22;;;10.13;72.47
74722;BME280;63470;49.826;6.740;2024-02-16T02:09:34;99888.67;;;10.10;72.47
74722;BME280;63470;49.826;6.740;2024-02-16T02:12:03;99894.16;;;10.07;72.42
74722;BME280;63470;49.826;6.740;2024-02-16T02:14:33;99896.17;;;10.04;72.41
74722;BME280;63470;49.826;6.740;2024-02-16T02:17:05;99891.30;;;10.01;72.46
74722;BME280;63470;49.826;6.740;2024-02-16T02:19:34;99886.89;;;9.99;72.49
74722;BME280;63470;49.826;6.740;2024-02-16T02:22:17;99885.52;;;9.98;72.53
74722;BME280;63470;49.826;6.740;2024-02-16T02:24:35;99879.59;;;9.97;72.62
74722;BME280;63470;49.826;6.740;2024-02-16T02:27:06;99871.23;;;9.98;72.55
74722;BME280;63470;49.826;6.740;2024-02-16T02:29:36;99865.38;;;10.00;72.47
74722;BME280;63470;49.826;6.740;2024-02-16T02:32:07;99865.70;;;9.99;72.52
74722;BME280;63470;49.826;6.740;2024-02-16T02:34:37;99863.39;;;10.00;72.55
74722;BME280;63470;49.826;6.740;2024-02-16T02:37:08;99866.08;;;10.01;72.54
74722;BME280;63470;49.826;6.740;2024-02-16T02:39:37;99866.78;;;10.03;72.52
74722;BME280;63470;49.826;6.740;2024-02-16T02:42:09;99864.27;;;10.05;72.49
74722;BME280;63470;49.826;6.740;2024-02-16T02:44:39;99868.06;;;10.08;72.42
74722;BME280;63470;49.826;6.740;2024-02-16T02:47:09;99868.18;;;10.08;72.40
74722;BME280;63470;49.826;6.740;2024-02-16T02:49:40;99875.98;;;10.08;72.41
74722;BME280;63470;49.826;6.740;2024-02-16T02:52:10;99878.94;;;10.10;72.49
74722;BME280;63470;49.826;6.740;2024-02-16T02:54:40;99870.91;;;10.12;72.47
74722;BME280;63470;49.826;6.740;2024-02-16T02:57:11;99874.81;;;10.16;72.47
74722;BME280;63470;49.826;6.740;2024-02-16T02:59:41;99877.45;;;10.19;72.36
74722;BME280;63470;49.826;6.740;2024-02-16T03:02:12;99875.56;;;10.19;72.30
74722;BME280;63470;49.826;6.740;2024-02-16T03:04:42;99878.40;;;10.17;72.36
74722;BME280;63470;49.826;6.740;2024-02-16T03:07:13;99876.55;;;10.14;72.43
74722;BME280;63470;49.826;6.740;2024-02-16T03:09:44;99880.59;;;10.14;72.47
74722;BME280;63470;49.826;6.740;2024-02-16T03:12:13;99874.57;;;10.14;72.41
74722;BME280;63470;49.826;6.740;2024-02-16T03:14:47;99871.22;;;10.14;72.42
74722;BME280;63470;49.826;6.740;2024-02-16T03:17:14;99872.27;;;10.10;72.43
74722;BME280;63470;49.826;6.740;2024-02-16T03:19:45;99873.05;;;10.04;72.54
74722;BME280;63470;49.826;6.740;2024-02-16T03:22:16;99873.62;;;9.99;72.63
74722;BME280;63470;49.826;6.740;2024-02-16T03:24:50;99871.14;;;9.94;72.64
74722;BME280;63470;49.826;6.740;2024-02-16T03:27:16;99871.88;;;9.90;72.65
74722;BME280;63470;49.826;6.740;2024-02-16T03:29:47;99870.88;;;9.86;72.66
74722;BME280;63470;49.826;6.740;2024-02-16T03:32:18;99869.34;;;9.82;72.65
74722;BME280;63470;49.826;6.740;2024-02-16T03:34:51;99872.14;;;9.77;72.64
74722;BME280;63470;49.826;6.740;2024-02-16T03:37:21;99873.54;;;9.73;72.71
74722;BME280;63470;49.826;6.740;2024-02-16T03:39:52;99877.86;;;9.70;72.65
74722;BME280;63470;49.826;6.740;2024-02-16T03:42:22;99881.97;;;9.66;72.63
74722;BME280;63470;49.826;6.740;2024-02-16T03:44:52;99878.04;;;9.60;72.66
74722;BME280;63470;49.826;6.740;2024-02-16T03:47:21;99879.06;;;9.58;72.68
74722;BME280;63470;49.826;6.740;2024-02-16T03:49:51;99876.95;;;9.51;72.67
74722;BME280;63470;49.826;6.740;2024-02-16T03:52:22;99875.69;;;9.45;72.78
74722;BME280;63470;49.826;6.740;2024-02-16T03:54:52;99882.18;;;9.41;72.84
74722;BME280;63470;49.826;6.740;2024-02-16T03:57:22;99886.48;;;9.35;72.87
74722;BME280;63470;49.826;6.740;2024-02-16T03:59:53;99889.16;;;9.27;72.94
74722;BME280;63470;49.826;6.740;2024-02-16T04:02:23;99891.70;;;9.21;72.89
74722;BME280;63470;49.826;6.740;2024-02-16T04:04:56;99890.59;;;9.15;72.80
74722;BME280;63470;49.826;6.740;2024-02-16T04:07:25;99890.64;;;9.06;72.86
74722;BME280;63470;49.826;6.740;2024-02-16T04:09:55;99896.02;;;8.98;72.97
74722;BME280;63470;49.826;6.740;2024-02-16T04:12:26;99893.23;;;8.91;72.95
74722;BME280;63470;49.826;6.740;2024-02-16T04:14:56;99893.73;;;8.86;72.89
74722;BME280;63470;49.826;6.740;2024-02-16T04:17:26;99897.55;;;8.78;72.93
74722;BME280;63470;49.826;6.740;2024-02-16T04:19:57;99899.66;;;8.73;72.91
74722;BME280;63470;49.826;6.740;2024-02-16T04:22:27;99889.33;;;8.65;72.81
74722;BME280;63470;49.826;6.740;2024-02-16T04:24:58;99902.44;;;8.57;72.88
74722;BME280;63470;49.826;6.740;2024-02-16T04:27:28;99908.36;;;8.51;72.98
74722;BME280;63470;49.826;6.740;2024-02-16T04:29:58;99908.95;;;8.50;72.93
74722;BME280;63470;49.826;6.740;2024-02-16T04:32:29;99909.01;;;8.45;72.87
74722;BME280;63470;49.826;6.740;2024-02-16T04:35:00;99910.40;;;8.39;72.84
74722;BME280;63470;49.826;6.740;2024-02-16T04:37:30;99908.69;;;8.30;72.87
74722;BME280;63470;49.826;6.740;2024-02-16T04:40:01;99917.47;;;8.23;72.98
74722;BME280;63470;49.826;6.740;2024-02-16T04:42:31;99912.77;;;8.17;73.14
74722;BME280;63470;49.826;6.740;2024-02-16T04:45:04;99915.28;;;8.14;73.18
74722;BME280;63470;49.826;6.740;2024-02-16T04:47:32;99919.52;;;8.08;73.19
74722;BME280;63470;49.826;6.740;2024-02-16T04:50:04;99918.45;;;8.01;73.31
74722;BME280;63470;49.826;6.740;2024-02-16T04:52:33;99921.11;;;7.99;73.37
74722;BME280;63470;49.826;6.740;2024-02-16T04:55:05;99927.02;;;7.99;73.38
74722;BME280;63470;49.826;6.740;2024-02-16T04:57:34;99923.95;;;8.00;73.25
74722;BME280;63470;49.826;6.740;2024-02-16T05:00:06;99923.11;;;8.02;73.33
74722;BME280;63470;49.826;6.740;2024-02-16T05:02:35;99921.41;;;8.09;73.25
74722;BME280;63470;49.826;6.740;2024-02-16T05:05:06;99924.75;;;8.11;73.16
74722;BME280;63470;49.826;6.740;2024-02-16T05:07:37;99923.12;;;8.09;73.09
74722;BME280;63470;49.826;6.740;2024-02-16T05:10:10;99923.59;;;8.05;73.08
74722;BME280;63470;49.826;6.740;2024-02-16T05:12:38;99924.61;;;8.00;72.98
74722;BME280;63470;49.826;6.740;2024-02-16T05:15:08;99924.51;;;7.94;73.07
74722;BME280;63470;49.826;6.740;2024-02-16T05:17:39;99923.98;;;7.91;73.10
74722;BME280;63470;49.826;6.740;2024-02-16T05:20:11;99924.52;;;7.86;73.13
74722;BME280;63470;49.826;6.740;2024-02-16T05:22:39;99919.88;;;7.83;73.21
74722;BME280;63470;49.826;6.740;2024-02-16T05:25:10;99918.72;;;7.83;73.23
74722;BME280;63470;49.826;6.740;2024-02-16T05:27:40;99924.96;;;7.82;73.28
74722;BME280;63470;49.826;6.740;2024-02-16T05:30:13;99927.37;;;7.81;73.32
74722;BME280;63470;49.826;6.740;2024-02-16T05:32:43;99924.33;;;7.80;73.28
74722;BME280;63470;49.826;6.740;2024-02-16T05:35:18;99928.12;;;7.78;73.15
74722;BME280;63470;49.826;6.740;2024-02-16T05:37:45;99920.30;;;7.73;73.14
74722;BME280;63470;49.826;6.740;2024-02-16T05:40:33;99923.92;;;7.70;73.12
74722;BME280;63470;49.826;6.740;2024-02-16T05:42:43;99921.88;;;7.63;73.12
74722;BME280;63470;49.826;6.740;2024-02-16T05:45:18;99925.09;;;7.59;73.09
74722;BME280;63470;49.826;6.740;2024-02-16T05:47:48;99927.67;;;7.56;73.16
74722;BME280;63470;49.826;6.740;2024-02-16T05:50:17;99934.34;;;7.55;73.14
74722;BME280;63470;49.826;6.740;2024-02-16T05:52:47;99930.50;;;7.53;73.11
74722;BME280;63470;49.826;6.740;2024-02-16T05:55:15;99932.56;;;7.50;73.17
74722;BME280;63470;49.826;6.740;2024-02-16T05:57:46;99935.36;;;7.50;73.12
74722;BME280;63470;49.826;6.740;2024-02-16T06:00:17;99933.49;;;7.49;73.08
74722;BME280;63470;49.826;6.740;2024-02-16T06:02:47;99933.97;;;7.51;73.11
74722;BME280;63470;49.826;6.740;2024-02-16T06:05:17;99931.07;;;7.52;73.13
74722;BME280;63470;49.826;6.740;2024-02-16T06:07:50;99926.62;;;7.54;73.12
74722;BME280;63470;49.826;6.740;2024-02-16T06:10:24;99929.62;;;7.58;73.06
74722;BME280;63470;49.826;6.740;2024-02-16T06:12:49;99935.84;;;7.60;73.12
74722;BME280;63470;49.826;6.740;2024-02-16T06:15:20;99933.19;;;7.64;73.11
74722;BME280;63470;49.826;6.740;2024-02-16T06:17:59;99943.64;;;7.70;73.05
74722;BME280;63470;49.826;6.740;2024-02-16T06:20:24;99940.56;;;7.75;72.89
74722;BME280;63470;49.826;6.740;2024-02-16T06:22:51;99945.12;;;7.79;72.81
74722;BME280;63470;49.826;6.740;2024-02-16T06:25:22;99945.62;;;7.80;72.84
74722;BME280;63470;49.826;6.740;2024-02-16T06:27:52;99946.18;;;7.81;72.87
74722;BME280;63470;49.826;6.740;2024-02-16T06:30:26;99953.50;;;7.86;72.91
74722;BME280;63470;49.826;6.740;2024-02-16T06:32:55;99954.70;;;7.90;72.85
74722;BME280;63470;49.826;6.740;2024-02-16T06:35:24;99961.41;;;7.95;72.80
74722;BME280;63470;49.826;6.740;2024-02-16T06:37:54;99962.68;;;7.99;72.77
74722;BME280;63470;49.826;6.740;2024-02-16T06:40:27;99962.72;;;8.03;72.80
74722;BME280;63470;49.826;6.740;2024-02-16T06:42:57;99973.12;;;8.08;72.81
74722;BME280;63470;49.826;6.740;2024-02-16T06:45:26;99973.14;;;8.14;72.68
74722;BME280;63470;49.826;6.740;2024-02-16T06:47:57;99971.04;;;8.18;72.69
74722;BME280;63470;49.826;6.740;2024-02-16T06:50:31;99972.53;;;8.23;72.72
74722;BME280;63470;49.826;6.740;2024-02-16T06:53:02;99974.30;;;8.29;72.65
74722;BME280;63470;49.826;6.740;2024-02-16T06:55:29;99978.79;;;8.34;72.66
74722;BME280;63470;49.826;6.740;2024-02-16T06:58:00;99981.35;;;8.40;72.65
74722;BME280;63470;49.826;6.740;2024-02-16T07:00:31;99982.77;;;8.46;72.64
74722;BME280;63470;49.826;6.740;2024-02-16T07:03:02;99986.83;;;8.50;72.58
74722;BME280;63470;49.826;6.740;2024-02-16T07:05:36;99987.08;;;8.55;72.60
74722;BME280;63470;49.826;6.740;2024-02-16T07:07:59;99990.30;;;8.61;72.60
74722;BME280;63470;49.826;6.740;2024-02-16T07:10:35;99997.30;;;8.68;72.55
74722;BME280;63470;49.826;6.740;2024-02-16T07:13:00;100000.41;;;8.75;72.54
74722;BME280;63470;49.826;6.740;2024-02-16T07:15:31;100002.53;;;8.83;72.51
74722;BME280;63470;49.826;6.740;2024-02-16T07:18:08;100006.87;;;8.91;72.44
74722;BME280;63470;49.826;6.740;2024-02-16T07:20:32;100002.41;;;9.00;72.38
74722;BME280;63470;49.826;6.740;2024-02-16T07:23:07;100006.33;;;9.08;72.31
74722;BME280;63470;49.826;6.740;2024-02-16T07:25:33;100014.50;;;9.17;72.24
74722;BME280;63470;49.826;6.740;2024-02-16T07:28:07;100013.92;;;9.25;72.20
74722;BME280;63470;49.826;6.740;2024-02-16T07:30:37;100014.77;;;9.33;72.18
74722;BME280;63470;49.826;6.740;2024-02-16T07:33:07;100014.40;;;9.42;72.11
74722;BME280;63470;49.826;6.740;2024-02-16T07:35:39;100013.38;;;9.50;72.04
74722;BME280;63470;49.826;6.740;2024-02-16T07:38:05;100020.77;;;9.61;71.96
74722;BME280;63470;49.826;6.740;2024-02-16T07:40:34;100018.36;;;9.69;71.78
74722;BME280;63470;49.826;6.740;2024-02-16T07:43:06;100019.83;;;9.74;71.68
74722;BME280;63470;49.826;6.740;2024-02-16T07:45:35;100016.09;;;9.78;71.67
74722;BME280;63470;49.826;6.740;2024-02-16T07:48:08;100021.59;;;9.82;71.65
74722;BME280;63470;49.826;6.740;2024-02-16T07:50:38;100023.97;;;9.88;71.67
74722;BME280;63470;49.826;6.740;2024-02-16T07:53:11;100026.17;;;9.96;71.69
74722;BME280;63470;49.826;6.740;2024-02-16T07:55:37;100028.69;;;10.06;71.67
74722;BME280;63470;49.826;6.740;2024-02-16T07:58:07;100032.83;;;10.17;71.63
74722;BME280;63470;49.826;6.740;2024-02-16T08:00:44;100035.54;;;10.28;71.62
74722;BME280;63470;49.826;6.740;2024-02-16T08:03:09;100044.27;;;10.41;71.70
74722;BME280;63470;49.826;6.740;2024-02-16T08:05:39;100040.80;;;10.54;71.53
74722;BME280;63470;49.826;6.740;2024-02-16T08:08:10;100050.91;;;10.65;71.44
74722;BME280;63470;49.826;6.740;2024-02-16T08:10:41;100046.83;;;10.76;71.34
74722;BME280;63470;49.826;6.740;2024-02-16T08:13:10;100043.62;;;10.84;71.28
74722;BME280;63470;49.826;6.740;2024-02-16T08:15:41;100044.69;;;10.92;71.24
74722;BME280;63470;49.826;6.740;2024-02-16T08:18:15;100052.99;;;11.01;71.29
74722;BME280;63470;49.826;6.740;2024-02-16T08:20:42;100050.63;;;11.12;71.32
74722;BME280;63470;49.826;6.740;2024-02-16T08:23:12;100054.12;;;11.26;71.28
74722;BME280;63470;49.826;6.740;2024-02-16T08:25:43;100054.48;;;11.36;71.30
74722;BME280;63470;49.826;6.740;2024-02-16T08:28:13;100060.58;;;11.48;71.26
74722;BME280;63470;49.826;6.740;2024-02-16T08:30:45;100060.96;;;11.60;71.24
74722;BME280;63470;49.826;6.740;2024-02-16T08:33:14;100064.02;;;11.72;71.24
74722;BME280;63470;49.826;6.740;2024-02-16T08:35:45;100071.20;;;11.87;71.25
74722;BME280;63470;49.826;6.740;2024-02-16T08:38:17;100067.34;;;12.03;71.19
74722;BME280;63470;49.826;6.740;2024-02-16T08:40:53;100073.74;;;12.15;71.09
74722;BME280;63470;49.826;6.740;2024-02-16T08:43:22;100082.91;;;12.25;71.13
74722;BME280;63470;49.826;6.740;2024-02-16T08:45:49;100086.83;;;12.37;71.15
74722;BME280;63470;49.826;6.740;2024-02-16T08:48:17;100084.28;;;12.48;71.16
74722;BME280;63470;49.826;6.740;2024-02-16T08:50:51;100085.31;;;12.63;71.11
74722;BME280;63470;49.826;6.740;2024-02-16T08:53:24;100084.34;;;12.78;71.10
74722;BME280;63470;49.826;6.740;2024-02-16T08:55:54;100084.12;;;12.91;71.08
74722;BME280;63470;49.826;6.740;2024-02-16T08:58:19;100089.23;;;13.05;71.08
74722;BME280;63470;49.826;6.740;2024-02-16T09:00:50;100090.50;;;13.17;71.08
74722;BME280;63470;49.826;6.740;2024-02-16T09:03:20;100096.28;;;13.28;71.10
74722;BME280;63470;49.826;6.740;2024-02-16T09:05:50;100094.44;;;13.40;71.13
74722;BME280;63470;49.826;6.740;2024-02-16T09:08:20;100097.84;;;13.51;71.12
74722;BME280;63470;49.826;6.740;2024-02-16T09:10:52;100098.45;;;13.61;71.14
74722;BME280;63470;49.826;6.740;2024-02-16T09:13:21;100095.50;;;13.70;71.16
74722;BME280;63470;49.826;6.740;2024-02-16T09:15:52;100097.59;;;13.80;71.18
74722;BME280;63470;49.826;6.740;2024-02-16T09:18:22;100102.88;;;13.89;71.18
74722;BME280;63470;49.826;6.740;2024-02-16T09:20:52;100105.63;;;13.96;71.18
74722;BME280;63470;49.826;6.740;2024-02-16T09:23:23;100113.16;;;14.02;71.24
74722;BME280;63470;49.826;6.740;2024-02-16T09:25:56;100114.20;;;14.08;71.25
74722;BME280;63470;49.826;6.740;2024-02-16T09:28:23;100117.75;;;14.14;71.28
74722;BME280;63470;49.826;6.740;2024-02-16T09:30:56;100114.28;;;14.22;71.28
74722;BME280;63470;49.826;6.740;2024-02-16T09:33:25;100117.45;;;14.30;71.24
74722;BME280;63470;49.826;6.740;2024-02-16T09:35:55;100121.25;;;14.38;71.29
74722;BME280;63470;49.826;6.740;2024-02-16T09:38:26;100118.01;;;14.45;71.31
74722;BME280;63470;49.826;6.740;2024-02-16T09:40:57;100121.63;;;14.56;71.27
74722;BME280;63470;49.826;6.740;2024-02-16T09:43:29;100122.97;;;14.67;71.18
74722;BME280;63470;49.826;6.740;2024-02-16T09:45:59;100126.53;;;14.77;71.15
74722;BME280;63470;49.826;6.740;2024-02-16T09:48:29;100131.83;;;14.85;71.10
74722;BME280;63470;49.826;6.740;2024-02-16T09:51:02;100135.27;;;14.91;71.11
74722;BME280;63470;49.826;6.740;2024-02-16T09:53:30;100137.35;;;14.96;71.13
74722;BME280;63470;49.826;6.740;2024-02-16T09:56:04;100137.94;;;15.03;71.14
74722;BME280;63470;49.826;6.740;2024-02-16T09:58:30;100144.70;;;15.06;71.16
74722;BME280;63470;49.826;6.740;2024-02-16T10:01:02;100146.28;;;15.15;71.19
74722;BME280;63470;49.826;6.740;2024-02-16T10:03:31;100146.80;;;15.24;71.17
74722;BME280;63470;49.826;6.740;2024-02-16T10:06:05;100149.91;;;15.35;71.19
74722;BME280;63470;49.826;6.740;2024-02-16T10:08:31;100150.61;;;15.47;71.16
74722;BME280;63470;49.826;6.740;2024-02-16T10:11:04;100154.95;;;15.59;71.12
74722;BME280;63470;49.826;6.740;2024-02-16T10:13:32;100162.11;;;15.67;71.04
74722;BME280;63470;49.826;6.740;2024-02-16T10:16:07;100159.17;;;15.76;71.12
74722;BME280;63470;49.826;6.740;2024-02-16T10:18:33;100158.03;;;15.86;71.07
74722;BME280;63470;49.826;6.740;2024-02-16T10:21:04;100164.31;;;15.98;71.02
74722;BME280;63470;49.826;6.740;2024-02-16T10:23:34;100165.30;;;16.07;70.95
74722;BME280;63470;49.826;6.740;2024-02-16T10:26:04;100169.66;;;16.18;70.95
74722;BME280;63470;49.826;6.740;2024-02-16T10:28:35;100167.81;;;16.30;70.91
74722;BME280;63470;49.826;6.740;2024-02-16T10:31:06;100168.50;;;16.43;70.88
74722;BME280;63470;49.826;6.740;2024-02-16T10:33:37;100172.09;;;16.58;70.83
74722;BME280;63470;49.826;6.740;2024-02-16T10:36:09;100173.84;;;16.73;70.88
74722;BME280;63470;49.826;6.740;2024-02-16T10:38:39;100179.90;;;16.90;70.83
74722;BME280;63470;49.826;6.740;2024-02-16T10:41:09;100186.37;;;17.02;70.76
74722;BME280;63470;49.826;6.740;2024-02-16T10:43:38;100184.54;;;17.06;70.77
74722;BME280;63470;49.826;6.740;2024-02-16T10:46:09;100178.06;;;17.01;70.97
74722;BME280;63470;49.826;6.740;2024-02-16T10:48:39;100181.78;;;17.00;70.93
74722;BME280;63470;49.826;6.740;2024-02-16T10:51:11;100182.20;;;16.98;71.01
74722;BME280;63470;49.826;6.740;2024-02-16T10:53:41;100176.13;;;17.02;71.14
74722;BME280;63470;49.826;6.740;2024-02-16T10:56:10;100183.88;;;17.04;71.12
74722;BME280;63470;49.826;6.740;2024-02-16T10:58:42;100180.81;;;17.05;71.14
74722;BME280;63470;49.826;6.740;2024-02-16T11:01:15;100179.02;;;17.17;71.16
74722;BME280;63470;49.826;6.740;2024-02-16T11:03:41;100179.16;;;17.33;70.97
74722;BME280;63470;49.826;6.740;2024-02-16T11:06:15;100181.23;;;17.53;70.83
74722;BME280;63470;49.826;6.740;2024-02-16T11:08:42;100183.49;;;17.61;70.78
74722;BME280;63470;49.826;6.740;2024-02-16T11:11:24;100181.22;;;17.60;70.87
74722;BME280;63470;49.826;6.740;2024-02-16T11:13:44;100189.58;;;17.60;71.00
74722;BME280;63470;49.826;6.740;2024-02-16T11:16:17;100181.61;;;17.50;71.01
74722;BME280;63470;49.826;6.740;2024-02-16T11:18:47;100181.70;;;17.34;71.21
74722;BME280;63470;49.826;6.740;2024-02-16T11:21:15;100182.89;;;17.23;71.40
74722;BME280;63470;49.826;6.740;2024-02-16T11:23:45;100181.53;;;17.15;71.53
74722;BME280;63470;49.826;6.740;2024-02-16T11:26:17;100186.89;;;17.05;71.57
74722;BME280;63470;49.826;6.740;2024-02-16T11:28:46;100189.65;;;16.98;71.65
74722;BME280;63470;49.826;6.740;2024-02-16T11:31:16;100185.25;;;16.95;71.67
74722;BME280;63470;49.826;6.740;2024-02-16T11:33:47;100186.16;;;17.01;71.62
74722;BME280;63470;49.826;6.740;2024-02-16T11:36:21;100193.55;;;17.11;71.57
74722;BME280;63470;49.826;6.740;2024-02-16T11:38:48;100198.71;;;17.13;71.57
74722;BME280;63470;49.826;6.740;2024-02-16T11:41:23;100189.09;;;17.18;71.56
74722;BME280;63470;49.826;6.740;2024-02-16T11:43:49;100198.68;;;17.22;71.50
74722;BME280;63470;49.826;6.740;2024-02-16T11:46:20;100198.75;;;17.22;71.57
74722;BME280;63470;49.826;6.740;2024-02-16T11:48:50;100196.34;;;17.17;71.51
74722;BME280;63470;49.826;6.740;2024-02-16T11:51:21;100197.27;;;17.07;71.56
74722;BME280;63470;49.826;6.740;2024-02-16T11:53:58;100205.27;;;16.93;71.64
74722;BME280;63470;49.826;6.740;2024-02-16T11:56:25;100203.94;;;16.77;71.78
74722;BME280;63470;49.826;6.740;2024-02-16T11:58:54;100205.77;;;16.65;71.93
74722;BME280;63470;49.826;6.740;2024-02-16T12:01:23;100200.36;;;16.59;72.08
74722;BME280;63470;49.826;6.740;2024-02-16T12:03:55;100197.38;;;16.60;72.06
74722;BME280;63470;49.826;6.740;2024-02-16T12:06:25;100199.36;;;16.57;72.01
74722;BME280;63470;49.826;6.740;2024-02-16T12:08:55;100205.42;;;16.54;72.06
74722;BME280;63470;49.826;6.740;2024-02-16T12:11:28;100198.01;;;16.52;72.10
74722;BME280;63470;49.826;6.740;2024-02-16T12:13:56;100212.08;;;16.52;72.13
74722;BME280;63470;49.826;6.740;2024-02-16T12:16:26;100209.91;;;16.54;72.13
74722;BME280;63470;49.826;6.740;2024-02-16T12:19:05;100212.17;;;16.56;72.07
74722;BME280;63470;49.826;6.740;2024-02-16T12:21:30;100209.91;;;16.50;72.04
74722;BME280;63470;49.826;6.740;2024-02-16T12:23:58;100207.23;;;16.43;72.05
74722;BME280;63470;49.826;6.740;2024-02-16T12:26:28;100203.45;;;16.34;72.12
74722;BME280;63470;49.826;6.740;2024-02-16T12:28:59;100209.31;;;16.24;72.20
74722;BME280;63470;49.826;6.740;2024-02-16T12:31:30;100212.53;;;16.15;72.31
74722;BME280;63470;49.826;6.740;2024-02-16T12:34:01;100213.77;;;16.06;72.43
74722;BME280;63470;49.826;6.740;2024-02-16T12:36:32;100217.25;;;16.00;72.52
74722;BME280;63470;49.826;6.740;2024-02-16T12:39:03;100222.27;;;15.95;72.53
74722;BME280;63470;49.826;6.740;2024-02-16T12:41:32;100220.52;;;15.91;72.50
74722;BME280;63470;49.826;6.740;2024-02-16T12:44:02;100226.75;;;15.87;72.53
74722;BME280;63470;49.826;6.740;2024-02-16T12:46:32;100221.59;;;15.82;72.53
74722;BME280;63470;49.826;6.740;2024-02-16T12:49:03;100228.06;;;15.81;72.58
74722;BME280;63470;49.826;6.740;2024-02-16T12:51:33;100239.28;;;15.79;72.59
74722;BME280;63470;49.826;6.740;2024-02-16T12:54:10;100233.64;;;15.79;72.57
74722;BME280;63470;49.826;6.740;2024-02-16T12:56:40;100234.29;;;15.77;72.51
74722;BME280;63470;49.826;6.740;2024-02-16T12:59:06;100240.21;;;15.74;72.53
74722;BME280;63470;49.826;6.740;2024-02-16T13:01:36;100238.92;;;15.71;72.53
74722;BME280;63470;49.826;6.740;2024-02-16T13:04:06;100241.56;;;15.67;72.52
74722;BME280;63470;49.826;6.740;2024-02-16T13:06:38;100243.05;;;15.60;72.54
74722;BME280;63470;49.826;6.740;2024-02-16T13:09:09;100240.58;;;15.53;72.65
74722;BME280;63470;49.826;6.740;2024-02-16T13:11:37;100246.25;;;15.50;72.75
74722;BME280;63470;49.826;6.740;2024-02-16T13:14:08;100243.64;;;15.46;72.73
74722;BME280;63470;49.826;6.740;2024-02-16T13:16:38;100246.22;;;15.44;72.78